sensor_id;sensor_type;location;lat;lon;timestamp;pressure;altitude;pressure_sealevel;temperature;humidity
78892;BME280;68368;51.728;5.248;2023-09-19T00:00:29;100751.19;;;14.14;99.92
78892;BME280;68368;51.728;5.248;2023-09-19T00:02:31;100748.13;;;14.15;99.93
78892;BME280;68368;51.728;5.248;2023-09-19T00:04:33;100752.73;;;14.16;99.89
78892;BME280;68368;51.728;5.248;2023-09-19T00:06:36;100750.98;;;14.14;99.81
78892;BME280;68368;51.728;5.248;2023-09-19T00:08:38;100754.47;;;14.11;99.91
78892;BME280;68368;51.728;5.248;2023-09-19T00:10:39;100757.59;;;14.07;99.44
78892;BME280;68368;51.728;5.248;2023-09-19T00:12:44;100765.19;;;14.03;99.13
78892;BME280;68368;51.728;5.248;2023-09-19T00:14:45;100764.94;;;13.99;99.12
78892;BME280;68368;51.728;5.248;2023-09-19T00:16:47;100766.85;;;13.95;99.05
78892;BME280;68368;51.728;5.248;2023-09-19T00:18:49;100770.36;;;13.90;99.17
78892;BME280;68368;51.728;5.248;2023-09-19T00:20:51;100772.65;;;13.84;98.90
78892;BME280;68368;51.728;5.248;2023-09-19T00:22:53;100776.53;;;13.78;98.72
78892;BME280;68368;51.728;5.248;2023-09-19T00:24:55;100776.48;;;13.73;98.50
78892;BME280;68368;51.728;5.248;2023-09-19T00:26:57;100776.46;;;13.66;98.42
78892;BME280;68368;51.728;5.248;2023-09-19T00:28:59;100774.27;;;13.61;98.14
78892;BME280;68368;51.728;5.248;2023-09-19T00:31:01;100778.16;;;13.55;98.20
78892;BME280;68368;51.728;5.248;2023-09-19T00:33:03;100786.69;;;13.48;98.21
78892;BME280;68368;51.728;5.248;2023-09-19T00:35:09;100786.98;;;13.43;98.10
78892;BME280;68368;51.728;5.248;2023-09-19T00:37:11;100787.27;;;13.39;98.19
78892;BME280;68368;51.728;5.248;2023-09-19T00:39:13;100793.19;;;13.37;98.23
78892;BME280;68368;51.728;5.248;2023-09-19T00:41:15;100794.31;;;13.34;98.21
78892;BME280;68368;51.728;5.248;2023-09-19T00:43:17;100793.10;;;13.33;98.07
78892;BME280;68368;51.728;5.248;2023-09-19T00:45:19;100794.41;;;13.30;97.89
78892;BME280;68368;51.728;5.248;2023-09-19T00:47:21;100796.92;;;13.30;98.15
78892;BME280;68368;51.728;5.248;2023-09-19T00:49:23;100800.50;;;13.29;98.01
78892;BME280;68368;51.728;5.248;2023-09-19T00:51:28;100804.91;;;13.30;97.91
78892;BME280;68368;51.728;5.248;2023-09-19T00:53:31;100808.65;;;13.31;98.01
78892;BME280;68368;51.728;5.248;2023-09-19T00:55:35;100813.80;;;13.32;98.08
78892;BME280;68368;51.728;5.248;2023-09-19T00:57:38;100813.42;;;13.33;98.22
78892;BME280;68368;51.728;5.248;2023-09-19T00:59:40;100810.74;;;13.33;98.10
78892;BME280;68368;51.728;5.248;2023-09-19T01:01:43;100814.98;;;13.35;97.40
78892;BME280;68368;51.728;5.248;2023-09-19T01:03:45;100822.06;;;13.37;97.40
78892;BME280;68368;51.728;5.248;2023-09-19T01:05:48;100821.16;;;13.38;97.59
78892;BME280;68368;51.728;5.248;2023-09-19T01:07:49;100822.95;;;13.38;97.37
78892;BME280;68368;51.728;5.248;2023-09-19T01:09:51;100826.15;;;13.39;97.61
78892;BME280;68368;51.728;5.248;2023-09-19T01:11:58;100823.65;;;13.38;97.54
78892;BME280;68368;51.728;5.248;2023-09-19T01:14:15;100826.84;;;13.39;97.00
78892;BME280;68368;51.728;5.248;2023-09-19T01:16:32;100829.51;;;13.40;96.82
78892;BME280;68368;51.728;5.248;2023-09-19T01:18:39;100827.23;;;13.38;96.85
78892;BME280;68368;51.728;5.248;2023-09-19T01:20:50;100825.64;;;13.37;96.62
78892;BME280;68368;51.728;5.248;2023-09-19T01:23:04;100822.85;;;13.34;96.21
78892;BME280;68368;51.728;5.248;2023-09-19T01:25:39;100825.80;;;13.29;95.98
78892;BME280;68368;51.728;5.248;2023-09-19T01:28:04;100828.02;;;13.24;95.74
78892;BME280;68368;51.728;5.248;2023-09-19T01:30:10;100829.95;;;13.18;95.45
78892;BME280;68368;51.728;5.248;2023-09-19T01:32:17;100832.59;;;13.10;95.50
78892;BME280;68368;51.728;5.248;2023-09-19T01:34:19;100830.23;;;13.03;95.48
78892;BME280;68368;51.728;5.248;2023-09-19T01:36:21;100830.73;;;12.96;95.30
78892;BME280;68368;51.728;5.248;2023-09-19T01:38:23;100837.94;;;12.92;95.10
78892;BME280;68368;51.728;5.248;2023-09-19T01:40:25;100840.55;;;12.86;95.05
78892;BME280;68368;51.728;5.248;2023-09-19T01:42:37;100840.13;;;12.81;95.11
78892;BME280;68368;51.728;5.248;2023-09-19T01:44:54;100842.21;;;12.74;95.39
78892;BME280;68368;51.728;5.248;2023-09-19T01:47:04;100841.81;;;12.66;95.20
78892;BME280;68368;51.728;5.248;2023-09-19T01:49:22;100843.33;;;12.62;95.18
78892;BME280;68368;51.728;5.248;2023-09-19T01:51:34;100845.20;;;12.56;95.19
78892;BME280;68368;51.728;5.248;2023-09-19T01:53:43;100848.34;;;12.52;94.81
78892;BME280;68368;51.728;5.248;2023-09-19T01:55:48;100850.00;;;12.48;95.09
78892;BME280;68368;51.728;5.248;2023-09-19T01:58:00;100850.44;;;12.43;95.22
78892;BME280;68368;51.728;5.248;2023-09-19T02:00:07;100846.43;;;12.38;95.13
78892;BME280;68368;51.728;5.248;2023-09-19T02:02:10;100850.96;;;12.33;95.17
78892;BME280;68368;51.728;5.248;2023-09-19T02:04:13;100848.38;;;12.28;95.27
78892;BME280;68368;51.728;5.248;2023-09-19T02:06:16;100845.61;;;12.23;95.45
78892;BME280;68368;51.728;5.248;2023-09-19T02:08:19;100852.08;;;12.19;95.38
78892;BME280;68368;51.728;5.248;2023-09-19T02:10:21;100853.94;;;12.15;95.37
78892;BME280;68368;51.728;5.248;2023-09-19T02:12:23;100857.02;;;12.12;95.25
78892;BME280;68368;51.728;5.248;2023-09-19T02:14:25;100856.90;;;12.08;95.58
78892;BME280;68368;51.728;5.248;2023-09-19T02:16:27;100860.16;;;12.04;95.63
78892;BME280;68368;51.728;5.248;2023-09-19T02:18:28;100859.86;;;12.01;95.31
78892;BME280;68368;51.728;5.248;2023-09-19T02:20:30;100859.91;;;11.98;95.06
78892;BME280;68368;51.728;5.248;2023-09-19T02:22:32;100860.98;;;11.96;94.79
78892;BME280;68368;51.728;5.248;2023-09-19T02:24:34;100858.70;;;11.95;94.79
78892;BME280;68368;51.728;5.248;2023-09-19T02:26:37;100862.64;;;11.93;94.73
78892;BME280;68368;51.728;5.248;2023-09-19T02:28:39;100865.15;;;11.91;94.35
78892;BME280;68368;51.728;5.248;2023-09-19T02:30:43;100866.27;;;11.88;94.59
78892;BME280;68368;51.728;5.248;2023-09-19T02:32:45;100863.99;;;11.85;94.47
78892;BME280;68368;51.728;5.248;2023-09-19T02:34:47;100862.59;;;11.82;94.33
78892;BME280;68368;51.728;5.248;2023-09-19T02:36:49;100863.35;;;11.79;94.27
78892;BME280;68368;51.728;5.248;2023-09-19T02:38:51;100863.94;;;11.76;94.48
78892;BME280;68368;51.728;5.248;2023-09-19T02:40:53;100865.39;;;11.73;94.35
78892;BME280;68368;51.728;5.248;2023-09-19T02:42:55;100869.33;;;11.71;94.56
78892;BME280;68368;51.728;5.248;2023-09-19T02:44:58;100871.16;;;11.67;94.57
78892;BME280;68368;51.728;5.248;2023-09-19T02:47:01;100868.39;;;11.63;94.38
78892;BME280;68368;51.728;5.248;2023-09-19T02:49:04;100868.62;;;11.59;94.38
78892;BME280;68368;51.728;5.248;2023-09-19T02:51:06;100870.09;;;11.55;94.58
78892;BME280;68368;51.728;5.248;2023-09-19T02:53:08;100867.65;;;11.51;94.66
78892;BME280;68368;51.728;5.248;2023-09-19T02:55:12;100869.12;;;11.48;94.47
78892;BME280;68368;51.728;5.248;2023-09-19T02:57:14;100869.49;;;11.47;94.84
78892;BME280;68368;51.728;5.248;2023-09-19T02:59:18;100868.44;;;11.45;94.49
78892;BME280;68368;51.728;5.248;2023-09-19T03:01:21;100871.48;;;11.44;94.39
78892;BME280;68368;51.728;5.248;2023-09-19T03:03:23;100870.25;;;11.43;94.42
78892;BME280;68368;51.728;5.248;2023-09-19T03:05:26;100871.70;;;11.41;94.23
78892;BME280;68368;51.728;5.248;2023-09-19T03:07:28;100871.73;;;11.39;94.34
78892;BME280;68368;51.728;5.248;2023-09-19T03:09:31;100874.94;;;11.39;94.17
78892;BME280;68368;51.728;5.248;2023-09-19T03:11:33;100871.92;;;11.37;94.28
78892;BME280;68368;51.728;5.248;2023-09-19T03:13:35;100874.05;;;11.37;93.98
78892;BME280;68368;51.728;5.248;2023-09-19T03:15:41;100872.13;;;11.36;94.07
78892;BME280;68368;51.728;5.248;2023-09-19T03:17:44;100871.61;;;11.35;93.90
78892;BME280;68368;51.728;5.248;2023-09-19T03:19:46;100866.26;;;11.36;93.81
78892;BME280;68368;51.728;5.248;2023-09-19T03:21:49;100870.16;;;11.36;94.05
78892;BME280;68368;51.728;5.248;2023-09-19T03:23:50;100863.78;;;11.34;93.78
78892;BME280;68368;51.728;5.248;2023-09-19T03:25:52;100869.48;;;11.35;94.09
78892;BME280;68368;51.728;5.248;2023-09-19T03:27:56;100870.55;;;11.33;93.79
78892;BME280;68368;51.728;5.248;2023-09-19T03:29:58;100869.70;;;11.32;93.35
78892;BME280;68368;51.728;5.248;2023-09-19T03:32:00;100873.23;;;11.32;93.24
78892;BME280;68368;51.728;5.248;2023-09-19T03:34:03;100873.23;;;11.33;93.53
78892;BME280;68368;51.728;5.248;2023-09-19T03:36:08;100867.36;;;11.33;93.15
78892;BME280;68368;51.728;5.248;2023-09-19T03:38:10;100864.88;;;11.33;93.13
78892;BME280;68368;51.728;5.248;2023-09-19T03:40:12;100860.96;;;11.33;93.45
78892;BME280;68368;51.728;5.248;2023-09-19T03:42:14;100860.95;;;11.33;93.08
78892;BME280;68368;51.728;5.248;2023-09-19T03:44:16;100857.76;;;11.34;93.13
78892;BME280;68368;51.728;5.248;2023-09-19T03:46:18;100853.48;;;11.34;93.00
78892;BME280;68368;51.728;5.248;2023-09-19T03:48:19;100855.27;;;11.35;92.85
78892;BME280;68368;51.728;5.248;2023-09-19T03:50:21;100859.35;;;11.35;92.79
78892;BME280;68368;51.728;5.248;2023-09-19T03:52:24;100862.35;;;11.36;92.77
78892;BME280;68368;51.728;5.248;2023-09-19T03:54:26;100857.71;;;11.38;92.84
78892;BME280;68368;51.728;5.248;2023-09-19T03:56:27;100859.48;;;11.38;92.75
78892;BME280;68368;51.728;5.248;2023-09-19T03:58:29;100853.63;;;11.38;93.17
78892;BME280;68368;51.728;5.248;2023-09-19T04:00:31;100850.95;;;11.37;93.02
78892;BME280;68368;51.728;5.248;2023-09-19T04:02:33;100854.35;;;11.36;93.03
78892;BME280;68368;51.728;5.248;2023-09-19T04:04:36;100846.34;;;11.37;92.91
78892;BME280;68368;51.728;5.248;2023-09-19T04:06:38;100850.60;;;11.38;92.71
78892;BME280;68368;51.728;5.248;2023-09-19T04:08:42;100850.73;;;11.40;92.76
78892;BME280;68368;51.728;5.248;2023-09-19T04:10:44;100854.27;;;11.41;92.66
78892;BME280;68368;51.728;5.248;2023-09-19T04:12:55;100857.28;;;11.43;92.69
78892;BME280;68368;51.728;5.248;2023-09-19T04:14:57;100864.94;;;11.42;92.99
78892;BME280;68368;51.728;5.248;2023-09-19T04:16:59;100867.80;;;11.41;92.92
78892;BME280;68368;51.728;5.248;2023-09-19T04:19:01;100871.18;;;11.41;92.97
78892;BME280;68368;51.728;5.248;2023-09-19T04:21:03;100878.96;;;11.43;92.97
78892;BME280;68368;51.728;5.248;2023-09-19T04:23:05;100885.54;;;11.44;93.06
78892;BME280;68368;51.728;5.248;2023-09-19T04:25:09;100889.45;;;11.43;93.05
78892;BME280;68368;51.728;5.248;2023-09-19T04:27:11;100891.77;;;11.42;93.04
78892;BME280;68368;51.728;5.248;2023-09-19T04:29:13;100897.80;;;11.43;93.29
78892;BME280;68368;51.728;5.248;2023-09-19T04:31:15;100899.55;;;11.45;93.18
78892;BME280;68368;51.728;5.248;2023-09-19T04:33:16;100900.61;;;11.46;93.20
78892;BME280;68368;51.728;5.248;2023-09-19T04:35:18;100907.36;;;11.47;93.21
78892;BME280;68368;51.728;5.248;2023-09-19T04:37:20;100908.61;;;11.46;93.64
78892;BME280;68368;51.728;5.248;2023-09-19T04:39:25;100909.85;;;11.45;93.48
78892;BME280;68368;51.728;5.248;2023-09-19T04:41:26;100910.57;;;11.45;93.76
78892;BME280;68368;51.728;5.248;2023-09-19T04:43:30;100912.88;;;11.46;94.01
78892;BME280;68368;51.728;5.248;2023-09-19T04:45:32;100914.45;;;11.49;94.05
78892;BME280;68368;51.728;5.248;2023-09-19T04:47:33;100917.25;;;11.51;93.95
78892;BME280;68368;51.728;5.248;2023-09-19T04:49:35;100921.48;;;11.55;93.59
78892;BME280;68368;51.728;5.248;2023-09-19T04:51:37;100925.16;;;11.59;93.51
78892;BME280;68368;51.728;5.248;2023-09-19T04:53:39;100924.23;;;11.62;93.65
78892;BME280;68368;51.728;5.248;2023-09-19T04:55:41;100921.90;;;11.63;93.52
78892;BME280;68368;51.728;5.248;2023-09-19T04:57:43;100917.96;;;11.66;93.46
78892;BME280;68368;51.728;5.248;2023-09-19T04:59:45;100915.42;;;11.69;93.30
78892;BME280;68368;51.728;5.248;2023-09-19T05:01:48;100916.98;;;11.72;93.34
78892;BME280;68368;51.728;5.248;2023-09-19T05:03:50;100921.05;;;11.74;93.24
78892;BME280;68368;51.728;5.248;2023-09-19T05:05:52;100924.94;;;11.76;93.32
78892;BME280;68368;51.728;5.248;2023-09-19T05:07:54;100927.42;;;11.76;93.47
78892;BME280;68368;51.728;5.248;2023-09-19T05:09:56;100925.47;;;11.76;93.58
78892;BME280;68368;51.728;5.248;2023-09-19T05:11:57;100929.91;;;11.76;93.86
78892;BME280;68368;51.728;5.248;2023-09-19T05:13:59;100933.98;;;11.77;94.03
78892;BME280;68368;51.728;5.248;2023-09-19T05:16:01;100931.13;;;11.77;94.05
78892;BME280;68368;51.728;5.248;2023-09-19T05:18:04;100927.75;;;11.78;94.18
78892;BME280;68368;51.728;5.248;2023-09-19T05:20:08;100931.83;;;11.79;94.46
78892;BME280;68368;51.728;5.248;2023-09-19T05:22:10;100932.17;;;11.81;94.48
78892;BME280;68368;51.728;5.248;2023-09-19T05:24:11;100932.48;;;11.83;94.30
78892;BME280;68368;51.728;5.248;2023-09-19T05:26:17;100936.38;;;11.86;94.52
78892;BME280;68368;51.728;5.248;2023-09-19T05:28:19;100937.40;;;11.90;94.58
78892;BME280;68368;51.728;5.248;2023-09-19T05:30:20;100938.61;;;11.93;94.46
78892;BME280;68368;51.728;5.248;2023-09-19T05:32:22;100937.50;;;11.95;94.85
78892;BME280;68368;51.728;5.248;2023-09-19T05:34:26;100940.69;;;11.97;94.81
78892;BME280;68368;51.728;5.248;2023-09-19T05:36:28;100944.94;;;11.99;94.73
78892;BME280;68368;51.728;5.248;2023-09-19T05:38:29;100945.27;;;12.00;94.61
78892;BME280;68368;51.728;5.248;2023-09-19T05:40:31;100943.96;;;12.04;94.82
78892;BME280;68368;51.728;5.248;2023-09-19T05:42:33;100943.92;;;12.07;94.78
78892;BME280;68368;51.728;5.248;2023-09-19T05:44:37;100940.50;;;12.10;95.07
78892;BME280;68368;51.728;5.248;2023-09-19T05:46:39;100930.30;;;12.14;94.95
78892;BME280;68368;51.728;5.248;2023-09-19T05:48:41;100933.10;;;12.18;95.02
78892;BME280;68368;51.728;5.248;2023-09-19T05:50:43;100929.98;;;12.23;94.76
78892;BME280;68368;51.728;5.248;2023-09-19T05:52:52;100938.11;;;12.27;94.98
78892;BME280;68368;51.728;5.248;2023-09-19T05:54:54;100941.95;;;12.31;94.97
78892;BME280;68368;51.728;5.248;2023-09-19T05:56:55;100939.38;;;12.36;95.03
78892;BME280;68368;51.728;5.248;2023-09-19T05:58:57;100934.15;;;12.41;94.84
78892;BME280;68368;51.728;5.248;2023-09-19T06:00:59;100932.27;;;12.47;94.48
78892;BME280;68368;51.728;5.248;2023-09-19T06:03:01;100928.07;;;12.53;94.43
78892;BME280;68368;51.728;5.248;2023-09-19T06:05:04;100929.59;;;12.59;94.47
78892;BME280;68368;51.728;5.248;2023-09-19T06:07:06;100927.69;;;12.65;94.17
78892;BME280;68368;51.728;5.248;2023-09-19T06:09:08;100930.04;;;12.73;93.93
78892;BME280;68368;51.728;5.248;2023-09-19T06:11:09;100927.95;;;12.81;93.64
78892;BME280;68368;51.728;5.248;2023-09-19T06:13:11;100927.98;;;12.89;93.48
78892;BME280;68368;51.728;5.248;2023-09-19T06:15:14;100931.05;;;12.96;93.10
78892;BME280;68368;51.728;5.248;2023-09-19T06:17:16;100936.63;;;13.03;92.97
78892;BME280;68368;51.728;5.248;2023-09-19T06:19:18;100939.71;;;13.09;92.83
78892;BME280;68368;51.728;5.248;2023-09-19T06:21:20;100939.91;;;13.18;92.57
78892;BME280;68368;51.728;5.248;2023-09-19T06:23:23;100943.17;;;13.26;92.28
78892;BME280;68368;51.728;5.248;2023-09-19T06:25:25;100945.85;;;13.35;91.89
78892;BME280;68368;51.728;5.248;2023-09-19T06:27:27;100944.79;;;13.44;91.46
78892;BME280;68368;51.728;5.248;2023-09-19T06:29:28;100942.44;;;13.54;91.24
78892;BME280;68368;51.728;5.248;2023-09-19T06:31:31;100949.40;;;13.63;90.98
78892;BME280;68368;51.728;5.248;2023-09-19T06:33:33;100955.29;;;13.70;90.47
78892;BME280;68368;51.728;5.248;2023-09-19T06:35:34;100959.54;;;13.80;90.47
78892;BME280;68368;51.728;5.248;2023-09-19T06:37:36;100961.46;;;13.91;90.03
78892;BME280;68368;51.728;5.248;2023-09-19T06:39:38;100961.04;;;14.02;89.78
78892;BME280;68368;51.728;5.248;2023-09-19T06:41:40;100955.23;;;14.13;88.83
78892;BME280;68368;51.728;5.248;2023-09-19T06:43:42;100958.04;;;14.24;88.05
78892;BME280;68368;51.728;5.248;2023-09-19T06:45:44;100961.57;;;14.34;87.95
78892;BME280;68368;51.728;5.248;2023-09-19T06:47:48;100960.81;;;14.43;87.77
78892;BME280;68368;51.728;5.248;2023-09-19T06:49:51;100945.05;;;14.53;87.22
78892;BME280;68368;51.728;5.248;2023-09-19T06:51:55;100951.61;;;14.62;86.64
78892;BME280;68368;51.728;5.248;2023-09-19T06:53:57;100951.61;;;14.69;86.33
78892;BME280;68368;51.728;5.248;2023-09-19T06:55:59;100946.78;;;14.77;85.88
78892;BME280;68368;51.728;5.248;2023-09-19T06:58:01;100951.05;;;14.84;85.74
78892;BME280;68368;51.728;5.248;2023-09-19T07:00:04;100955.00;;;14.90;85.64
78892;BME280;68368;51.728;5.248;2023-09-19T07:02:06;100948.75;;;14.97;84.99
78892;BME280;68368;51.728;5.248;2023-09-19T07:04:08;100953.02;;;15.05;85.14
78892;BME280;68368;51.728;5.248;2023-09-19T07:06:10;100961.43;;;15.17;84.84
78892;BME280;68368;51.728;5.248;2023-09-19T07:08:11;100961.77;;;15.32;84.37
78892;BME280;68368;51.728;5.248;2023-09-19T07:10:13;100960.27;;;15.47;83.71
78892;BME280;68368;51.728;5.248;2023-09-19T07:12:15;100963.89;;;15.65;82.87
78892;BME280;68368;51.728;5.248;2023-09-19T07:14:17;100964.70;;;15.80;82.54
78892;BME280;68368;51.728;5.248;2023-09-19T07:16:21;100963.67;;;15.96;80.78
78892;BME280;68368;51.728;5.248;2023-09-19T07:18:23;100961.52;;;16.14;80.74
78892;BME280;68368;51.728;5.248;2023-09-19T07:20:25;100966.03;;;16.30;80.23
78892;BME280;68368;51.728;5.248;2023-09-19T07:22:27;100958.48;;;16.47;78.80
78892;BME280;68368;51.728;5.248;2023-09-19T07:24:32;100956.52;;;16.64;78.27
78892;BME280;68368;51.728;5.248;2023-09-19T07:26:34;100958.79;;;16.83;78.23
78892;BME280;68368;51.728;5.248;2023-09-19T07:28:38;100959.23;;;17.01;76.90
78892;BME280;68368;51.728;5.248;2023-09-19T07:30:40;100957.27;;;17.15;76.98
78892;BME280;68368;51.728;5.248;2023-09-19T07:32:42;100959.63;;;17.35;76.28
78892;BME280;68368;51.728;5.248;2023-09-19T07:34:44;100958.64;;;17.57;75.07
78892;BME280;68368;51.728;5.248;2023-09-19T07:36:46;100959.92;;;17.80;73.76
78892;BME280;68368;51.728;5.248;2023-09-19T07:38:48;100965.84;;;18.09;73.62
78892;BME280;68368;51.728;5.248;2023-09-19T07:40:51;100964.47;;;18.43;72.53
78892;BME280;68368;51.728;5.248;2023-09-19T07:42:53;100961.60;;;18.70;72.09
78892;BME280;68368;51.728;5.248;2023-09-19T07:44:55;100966.67;;;18.91;70.13
78892;BME280;68368;51.728;5.248;2023-09-19T07:46:57;100961.02;;;19.09;70.01
78892;BME280;68368;51.728;5.248;2023-09-19T07:49:02;100962.83;;;19.21;69.59
78892;BME280;68368;51.728;5.248;2023-09-19T07:51:05;100964.71;;;19.35;69.80
78892;BME280;68368;51.728;5.248;2023-09-19T07:53:10;100974.59;;;19.49;68.74
78892;BME280;68368;51.728;5.248;2023-09-19T07:55:12;100978.77;;;19.59;68.18
78892;BME280;68368;51.728;5.248;2023-09-19T07:57:15;100973.98;;;19.66;67.20
78892;BME280;68368;51.728;5.248;2023-09-19T07:59:17;100973.73;;;19.68;66.05
78892;BME280;68368;51.728;5.248;2023-09-19T08:01:21;100975.11;;;19.69;66.32
78892;BME280;68368;51.728;5.248;2023-09-19T08:03:23;100979.52;;;19.75;66.75
78892;BME280;68368;51.728;5.248;2023-09-19T08:05:25;100971.41;;;19.83;66.61
78892;BME280;68368;51.728;5.248;2023-09-19T08:07:29;100965.75;;;19.88;66.50
78892;BME280;68368;51.728;5.248;2023-09-19T08:09:31;100967.09;;;19.91;65.99
78892;BME280;68368;51.728;5.248;2023-09-19T08:11:32;100969.63;;;19.90;65.60
78892;BME280;68368;51.728;5.248;2023-09-19T08:13:37;100972.30;;;19.87;65.15
78892;BME280;68368;51.728;5.248;2023-09-19T08:15:43;100969.45;;;19.79;65.32
78892;BME280;68368;51.728;5.248;2023-09-19T08:17:45;100977.71;;;19.75;65.66
78892;BME280;68368;51.728;5.248;2023-09-19T08:19:46;100980.19;;;19.84;66.36
78892;BME280;68368;51.728;5.248;2023-09-19T08:21:48;100978.70;;;19.97;66.14
78892;BME280;68368;51.728;5.248;2023-09-19T08:23:50;100977.13;;;20.15;65.93
78892;BME280;68368;51.728;5.248;2023-09-19T08:25:56;100981.70;;;20.36;64.95
78892;BME280;68368;51.728;5.248;2023-09-19T08:27:58;100983.67;;;20.47;63.62
78892;BME280;68368;51.728;5.248;2023-09-19T08:30:00;100984.31;;;20.53;63.50
78892;BME280;68368;51.728;5.248;2023-09-19T08:32:03;100980.77;;;20.63;63.61
78892;BME280;68368;51.728;5.248;2023-09-19T08:34:05;100980.21;;;20.78;63.06
78892;BME280;68368;51.728;5.248;2023-09-19T08:36:08;100979.61;;;20.93;62.63
78892;BME280;68368;51.728;5.248;2023-09-19T08:38:10;100975.23;;;20.97;62.63
78892;BME280;68368;51.728;5.248;2023-09-19T08:40:12;100971.23;;;21.01;62.11
78892;BME280;68368;51.728;5.248;2023-09-19T08:42:15;100969.27;;;21.05;61.37
78892;BME280;68368;51.728;5.248;2023-09-19T08:44:17;100971.80;;;21.12;60.73
78892;BME280;68368;51.728;5.248;2023-09-19T08:46:23;100967.00;;;21.31;60.68
78892;BME280;68368;51.728;5.248;2023-09-19T08:48:28;100970.84;;;21.58;60.78
78892;BME280;68368;51.728;5.248;2023-09-19T08:50:32;100972.19;;;21.76;59.95
78892;BME280;68368;51.728;5.248;2023-09-19T08:52:41;100964.38;;;21.97;58.80
78892;BME280;68368;51.728;5.248;2023-09-19T08:54:45;100966.59;;;22.19;58.38
78892;BME280;68368;51.728;5.248;2023-09-19T08:56:48;100963.45;;;22.27;57.45
78892;BME280;68368;51.728;5.248;2023-09-19T08:58:55;100964.94;;;22.26;57.54
78892;BME280;68368;51.728;5.248;2023-09-19T09:00:59;100965.33;;;22.25;57.57
78892;BME280;68368;51.728;5.248;2023-09-19T09:03:03;100967.68;;;22.25;57.43
78892;BME280;68368;51.728;5.248;2023-09-19T09:05:07;100969.71;;;22.24;57.71
78892;BME280;68368;51.728;5.248;2023-09-19T09:07:11;100968.88;;;22.23;56.56
78892;BME280;68368;51.728;5.248;2023-09-19T09:09:14;100967.91;;;22.37;56.55
78892;BME280;68368;51.728;5.248;2023-09-19T09:11:16;100972.82;;;22.55;56.11
78892;BME280;68368;51.728;5.248;2023-09-19T09:13:18;100968.05;;;22.66;56.00
78892;BME280;68368;51.728;5.248;2023-09-19T09:15:20;100966.35;;;22.61;55.19
78892;BME280;68368;51.728;5.248;2023-09-19T09:17:24;100966.59;;;22.57;55.68
78892;BME280;68368;51.728;5.248;2023-09-19T09:19:26;100957.92;;;22.53;55.63
78892;BME280;68368;51.728;5.248;2023-09-19T09:21:28;100954.06;;;22.51;56.21
78892;BME280;68368;51.728;5.248;2023-09-19T09:23:31;100951.62;;;22.53;56.47
78892;BME280;68368;51.728;5.248;2023-09-19T09:25:50;100951.52;;;22.54;56.34
78892;BME280;68368;51.728;5.248;2023-09-19T09:28:02;100943.41;;;22.48;54.83
78892;BME280;68368;51.728;5.248;2023-09-19T09:30:06;100949.90;;;22.46;55.78
78892;BME280;68368;51.728;5.248;2023-09-19T09:32:30;100945.41;;;22.48;56.40
78892;BME280;68368;51.728;5.248;2023-09-19T09:34:34;100946.34;;;22.54;56.03
78892;BME280;68368;51.728;5.248;2023-09-19T09:36:37;100946.34;;;22.59;55.58
78892;BME280;68368;51.728;5.248;2023-09-19T09:38:47;100946.86;;;22.69;55.27
78892;BME280;68368;51.728;5.248;2023-09-19T09:40:50;100942.19;;;22.81;54.39
78892;BME280;68368;51.728;5.248;2023-09-19T09:42:52;100945.11;;;22.90;54.83
78892;BME280;68368;51.728;5.248;2023-09-19T09:45:13;100944.08;;;22.92;54.52
78892;BME280;68368;51.728;5.248;2023-09-19T09:47:21;100941.88;;;22.86;54.35
78892;BME280;68368;51.728;5.248;2023-09-19T09:49:48;100940.42;;;22.87;54.33
78892;BME280;68368;51.728;5.248;2023-09-19T09:51:58;100943.41;;;22.85;53.36
78892;BME280;68368;51.728;5.248;2023-09-19T09:54:14;100950.21;;;22.80;54.14
78892;BME280;68368;51.728;5.248;2023-09-19T09:56:16;100947.76;;;22.78;53.93
78892;BME280;68368;51.728;5.248;2023-09-19T09:58:20;100949.55;;;22.88;54.08
78892;BME280;68368;51.728;5.248;2023-09-19T10:00:22;100950.39;;;22.89;53.82
78892;BME280;68368;51.728;5.248;2023-09-19T10:02:27;100950.39;;;22.96;54.04
78892;BME280;68368;51.728;5.248;2023-09-19T10:04:29;100946.50;;;23.06;53.88
78892;BME280;68368;51.728;5.248;2023-09-19T10:06:41;100950.89;;;23.17;53.16
78892;BME280;68368;51.728;5.248;2023-09-19T10:08:58;100939.45;;;23.30;51.70
78892;BME280;68368;51.728;5.248;2023-09-19T10:11:01;100950.25;;;23.31;52.76
78892;BME280;68368;51.728;5.248;2023-09-19T10:13:03;100945.58;;;23.36;52.39
78892;BME280;68368;51.728;5.248;2023-09-19T10:15:09;100949.90;;;23.45;52.69
78892;BME280;68368;51.728;5.248;2023-09-19T10:17:14;100949.40;;;23.47;51.75
78892;BME280;68368;51.728;5.248;2023-09-19T10:19:27;100945.46;;;23.52;52.00
78892;BME280;68368;51.728;5.248;2023-09-19T10:21:31;100947.02;;;23.57;51.67
78892;BME280;68368;51.728;5.248;2023-09-19T10:23:34;100941.90;;;23.51;52.09
78892;BME280;68368;51.728;5.248;2023-09-19T10:25:37;100943.44;;;23.56;51.66
78892;BME280;68368;51.728;5.248;2023-09-19T10:27:40;100936.48;;;23.46;51.69
78892;BME280;68368;51.728;5.248;2023-09-19T10:29:44;100937.11;;;23.53;52.05
78892;BME280;68368;51.728;5.248;2023-09-19T10:31:49;100932.86;;;23.45;51.54
78892;BME280;68368;51.728;5.248;2023-09-19T10:33:58;100928.31;;;23.28;51.74
78892;BME280;68368;51.728;5.248;2023-09-19T10:36:02;100925.94;;;23.17;51.82
78892;BME280;68368;51.728;5.248;2023-09-19T10:38:07;100933.80;;;23.00;52.46
78892;BME280;68368;51.728;5.248;2023-09-19T10:40:11;100934.77;;;22.96;53.63
78892;BME280;68368;51.728;5.248;2023-09-19T10:42:18;100928.13;;;23.04;53.72
78892;BME280;68368;51.728;5.248;2023-09-19T10:44:25;100920.20;;;23.13;53.38
78892;BME280;68368;51.728;5.248;2023-09-19T10:46:28;100922.50;;;23.20;52.77